Sainte-Monique, Canada
Current Conditions -  °F | °C
As of 7:00 PM on Saturday 22 Nov 2014 (Local Time) from CYRQ Reporting Station
Overcast Overcast  
Wind Chill: 21°   Ceiling: 2600
Heat Index: 32°   Visibility: 9mi
Dew Point: 27°   Wind: 17mph
Humidity: 80%   Direction: 230°SW
Pressure: 29.85"   Gusts: 24mph
Location:  46.18°N, 72.5°W
Report Text: CYRQ 230000Z AUTO 23015G21KT 9SM OVC026 M00/M03 A2985 RMK SLP111
Loading
Personal Weather Stations






























Interactive Weather Map New forecast layout! Learn more

10-Day Weather Forecast

Advertisements
Track Severe Weather on mobile